Time;durP1;ratioP1;P1;durP2;ratioP2;P2;SDS_P1;SDS_P2;PMS_P1;PMS_P2;Temp;Humidity;BMP_temperature;BMP_pressure;BME280_temperature;BME280_humidity;BME280_pressure;Samples;Min_cycle;Max_cycle;Signal;HPM_P1;HPM_P2
2023/03/02 00:00:39;;;;;;;14.80;13.73;;;1.80;99.90;;;;;;5083688;28;20024;-77
2023/03/02 00:03:05;;;;;;;0.10;0.10;;;1.90;99.90;;;;;;5102503;28;20024;-76
2023/03/02 00:05:33;;;;;;;5.93;5.70;;;1.90;99.90;;;;;;5100217;28;20536;-76
2023/03/02 00:07:59;;;;;;;2.28;2.25;;;;;;;;;;5084033;28;20720;-76
2023/03/02 00:10:25;;;;;;;0.30;0.30;;;1.80;99.90;;;;;;5082556;28;20020;-76
2023/03/02 00:12:51;;;;;;;0.20;0.20;;;1.90;99.90;;;;;;5101487;28;20406;-77
2023/03/02 00:15:17;;;;;;;0.52;0.52;;;1.90;99.90;;;;;;5101809;28;20012;-76
2023/03/02 00:17:44;;;;;;;0.10;0.10;;;1.90;99.90;;;;;;5102608;28;20031;-76
2023/03/02 00:20:12;;;;;;;3.67;3.50;;;1.90;99.90;;;;;;5101511;28;20031;-76
2023/03/02 00:22:43;;;;;;;0.20;0.20;;;1.90;99.90;;;;;;5109102;28;20045;-76
2023/03/02 00:25:11;;;;;;;6.50;6.30;;;1.90;99.90;;;;;;5118308;28;20019;-76
2023/03/02 00:27:36;;;;;;;0.82;0.82;;;1.90;99.90;;;;;;5119383;28;20111;-76
2023/03/02 00:30:04;;;;;;;0.15;0.15;;;1.90;99.90;;;;;;5120342;28;20027;-80
2023/03/02 00:32:29;;;;;;;0.30;0.30;;;1.90;99.90;;;;;;5120070;28;20128;-76
2023/03/02 00:34:55;;;;;;;0.20;0.20;;;1.90;99.90;;;;;;5117492;28;20059;-76
2023/03/02 00:37:26;;;;;;;0.88;0.88;;;1.90;99.90;;;;;;5103146;28;20108;-76
2023/03/02 00:39:52;;;;;;;5.38;5.15;;;;;;;;;;5100258;28;20051;-76
2023/03/02 00:42:19;;;;;;;0.22;0.22;;;1.90;99.90;;;;;;5103410;28;20092;-76
2023/03/02 00:44:44;;;;;;;0.17;0.17;;;1.90;99.90;;;;;;5081274;28;20034;-76
2023/03/02 00:47:10;;;;;;;14.30;12.95;;;1.90;99.90;;;;;;5108351;28;20106;-76
2023/03/02 00:49:48;;;;;;;0.57;0.57;;;2.70;99.90;;;;;;5080925;28;20032;-75
2023/03/02 00:52:15;;;;;;;0.10;0.10;;;1.90;99.90;;;;;;5085721;28;20027;-76
2023/03/02 00:54:41;;;;;;;4.03;3.85;;;1.80;99.90;;;;;;5093489;28;20048;-76
2023/03/02 00:57:07;;;;;;;8.68;8.32;;;1.80;99.90;;;;;;5112524;28;20038;-76
2023/03/02 00:59:35;;;;;;;7.40;6.72;;;1.80;99.90;;;;;;5100032;28;20015;-77
2023/03/02 01:02:01;;;;;;;19.65;18.20;;;1.80;99.90;;;;;;5082722;28;20028;-76
2023/03/02 01:04:30;;;;;;;0.10;0.10;;;1.90;99.90;;;;;;5081097;28;20059;-76
2023/03/02 01:07:00;;;;;;;0.20;0.20;;;1.90;99.90;;;;;;5094211;28;20028;-77
2023/03/02 01:09:26;;;;;;;0.52;0.52;;;1.90;99.90;;;;;;5120980;28;20104;-76
2023/03/02 01:11:52;;;;;;;50.40;46.38;;;0.60;99.90;;;;;;5120236;28;20027;-76
2023/03/02 01:14:18;;;;;;;17.48;16.58;;;1.90;99.90;;;;;;5102168;28;20043;-76
2023/03/02 01:16:46;;;;;;;0.30;0.30;;;1.90;99.90;;;;;;5120256;28;20028;-76
2023/03/02 01:19:21;;;;;;;0.25;0.25;;;1.90;99.90;;;;;;5120320;28;20015;-76
2023/03/02 01:21:46;;;;;;;2.72;2.63;;;1.90;99.90;;;;;;5120074;28;20023;-76
2023/03/02 01:24:12;;;;;;;17.27;16.30;;;1.80;99.90;;;;;;5120618;28;20015;-76
2023/03/02 01:26:38;;;;;;;0.43;0.43;;;1.90;99.90;;;;;;5119815;28;20045;-76
2023/03/02 01:29:04;;;;;;;0.40;0.40;;;1.90;99.90;;;;;;5121123;28;20031;-76
2023/03/02 01:31:30;;;;;;;5.38;5.15;;;1.90;99.90;;;;;;5119116;28;20050;-76
2023/03/02 01:33:56;;;;;;;7.90;7.47;;;1.90;99.90;;;;;;5102691;28;20027;-76
2023/03/02 01:36:23;;;;;;;1.05;1.05;;;1.90;99.90;;;;;;5121058;28;20024;-76
2023/03/02 01:38:50;;;;;;;0.85;0.85;;;1.90;99.90;;;;;;5112159;28;20036;-76
2023/03/02 01:41:16;;;;;;;7.68;7.32;;;1.90;99.90;;;;;;5122144;28;20067;-76
2023/03/02 01:43:42;;;;;;;2.75;2.65;;;1.90;99.90;;;;;;5093161;28;20004;-76
2023/03/02 01:46:13;;;;;;;0.10;0.10;;;1.90;99.90;;;;;;5122571;28;20026;-76
2023/03/02 01:48:51;;;;;;;0.20;0.20;;;1.90;99.90;;;;;;5122186;28;20053;-76
2023/03/02 01:51:21;;;;;;;0.20;0.20;;;1.90;99.90;;;;;;5120848;28;20023;-77
2023/03/02 01:54:09;;;;;;;5.28;5.07;;;1.80;99.90;;;;;;5104587;28;20027;-76
2023/03/02 01:56:39;;;;;;;9.38;8.98;;;1.80;99.90;;;;;;5118663;28;20031;-76
2023/03/02 01:59:11;;;;;;;0.20;0.20;;;1.70;99.90;;;;;;5123288;28;20034;-77
2023/03/02 02:01:40;;;;;;;0.57;0.57;;;1.70;99.90;;;;;;5126291;28;20612;-77
2023/03/02 02:04:06;;;;;;;2.50;2.42;;;1.70;99.90;;;;;;5124688;28;20028;-76
2023/03/02 02:06:54;;;;;;;0.10;0.10;;;1.70;99.90;;;;;;5127049;28;20050;-77
2023/03/02 02:09:24;;;;;;;0.20;0.20;;;1.70;99.90;;;;;;5108900;28;20014;-78
2023/03/02 02:11:52;;;;;;;7.55;3.75;;;1.80;99.90;;;;;;5102504;28;20039;-76
2023/03/02 02:14:28;;;;;;;3.50;3.40;;;1.40;99.90;;;;;;5123526;27;20024;-76
2023/03/02 02:16:53;;;;;;;0.20;0.20;;;1.70;99.90;;;;;;5124436;28;20030;-76
2023/03/02 02:19:39;;;;;;;1.35;1.35;;;1.80;99.90;;;;;;5124757;28;20099;-76
2023/03/02 02:22:05;;;;;;;12.85;7.30;;;1.80;99.90;;;;;;5105475;28;20027;-76
2023/03/02 02:24:52;;;;;;;0.10;0.10;;;1.80;99.90;;;;;;5125214;28;20040;-76
2023/03/02 02:27:18;;;;;;;4.85;4.57;;;1.80;99.90;;;;;;5111322;28;20032;-76
2023/03/02 02:29:48;;;;;;;0.10;0.10;;;1.90;99.90;;;;;;5125897;28;20091;-76
2023/03/02 02:32:21;;;;;;;0.00;0.00;;;1.80;99.90;;;;;;5125148;27;20086;-76
2023/03/02 02:35:04;;;;;;;0.10;0.10;;;1.80;99.90;;;;;;5127054;28;20031;-77
2023/03/02 02:37:52;;;;;;;0.77;0.77;;;1.90;99.90;;;;;;5090236;28;20040;-76
2023/03/02 02:40:39;;;;;;;0.10;0.10;;;1.90;99.90;;;;;;5109261;28;20043;-76
2023/03/02 02:43:09;;;;;;;1.67;1.67;;;1.90;99.90;;;;;;5107707;28;20379;-76
2023/03/02 02:45:35;;;;;;;0.75;0.75;;;1.90;99.90;;;;;;5103748;28;20301;-76
2023/03/02 02:48:01;;;;;;;0.20;0.20;;;1.90;99.90;;;;;;5104470;28;20079;-77
2023/03/02 02:50:36;;;;;;;2.08;1.98;;;1.90;99.90;;;;;;5087993;28;20115;-76
2023/03/02 02:53:12;;;;;;;0.10;0.10;;;1.70;99.90;;;;;;5103089;28;20032;-77
2023/03/02 02:55:40;;;;;;;1.63;1.55;;;1.90;99.90;;;;;;5103838;28;20237;-76
2023/03/02 02:58:26;;;;;;;0.10;0.10;;;2.00;99.90;;;;;;5087720;28;20228;-76
2023/03/02 03:00:53;;;;;;;2.30;2.20;;;1.90;99.90;;;;;;5102284;28;20043;-76
2023/03/02 03:03:29;;;;;;;1.52;1.50;;;2.00;99.90;;;;;;5087860;28;20034;-77
2023/03/02 03:05:58;;;;;;;0.10;0.10;;;2.00;99.90;;;;;;5093009;28;20502;-76
2023/03/02 03:08:42;;;;;;;0.17;0.17;;;2.00;99.90;;;;;;5102292;28;20779;-76
2023/03/02 03:11:14;;;;;;;1.30;1.30;;;2.00;99.90;;;;;;5106777;28;20027;-76
2023/03/02 03:13:42;;;;;;;2.03;1.85;;;1.80;99.90;;;;;;5083349;28;20016;-77
2023/03/02 03:16:13;;;;;;;4.03;3.72;;;2.00;99.90;;;;;;5084154;28;20024;-76
2023/03/02 03:18:42;;;;;;;0.20;0.20;;;2.00;99.90;;;;;;5111102;28;20037;-76
2023/03/02 03:21:08;;;;;;;0.15;0.15;;;2.00;99.90;;;;;;5092264;28;20038;-76
2023/03/02 03:23:37;;;;;;;0.20;0.20;;;2.00;99.90;;;;;;5086295;28;20107;-76
2023/03/02 03:26:04;;;;;;;4.07;3.95;;;2.00;99.90;;;;;;5083482;28;20660;-76
2023/03/02 03:28:34;;;;;;;0.20;0.20;;;2.00;99.90;;;;;;5101942;28;20012;-76
2023/03/02 03:31:00;;;;;;;3.03;2.92;;;2.00;99.90;;;;;;5083152;28;20104;-77
2023/03/02 03:33:26;;;;;;;0.10;0.10;;;2.00;99.90;;;;;;5082290;28;20089;-77
2023/03/02 03:35:52;;;;;;;2.85;2.65;;;2.00;99.90;;;;;;5084771;28;20303;-76
2023/03/02 03:38:18;;;;;;;5.63;5.43;;;2.00;99.90;;;;;;5102808;28;20385;-76
2023/03/02 03:40:44;;;;;;;0.43;0.43;;;1.90;99.90;;;;;;5083470;28;20500;-76
2023/03/02 03:43:12;;;;;;;6.93;6.55;;;1.90;99.90;;;;;;5088125;28;20028;-76
2023/03/02 03:45:38;;;;;;;0.17;0.17;;;1.90;99.90;;;;;;5107000;28;20044;-76
2023/03/02 03:48:04;;;;;;;0.20;0.20;;;1.80;99.90;;;;;;5084496;28;20080;-76
2023/03/02 03:50:33;;;;;;;2.83;2.72;;;1.90;99.90;;;;;;5104427;28;20055;-76
2023/03/02 03:52:58;;;;;;;0.10;0.10;;;1.90;99.90;;;;;;5088964;28;20364;-76
2023/03/02 03:55:27;;;;;;;4.63;4.47;;;1.90;99.90;;;;;;5105463;28;20046;-77
2023/03/02 03:57:53;;;;;;;14.15;13.55;;;1.90;99.90;;;;;;5082824;28;20312;-76
2023/03/02 04:00:20;;;;;;;0.10;0.10;;;1.90;99.90;;;;;;5101830;28;20437;-76
2023/03/02 04:02:46;;;;;;;7.32;6.90;;;1.90;99.90;;;;;;5083679;28;20019;-75
2023/03/02 04:05:12;;;;;;;0.20;0.20;;;1.90;99.90;;;;;;5101326;28;20024;-76
2023/03/02 04:07:39;;;;;;;0.88;0.85;;;1.90;99.90;;;;;;5090215;28;20024;-75
2023/03/02 04:10:07;;;;;;;22.73;18.60;;;1.90;99.90;;;;;;5106311;28;20552;-75
2023/03/02 04:12:35;;;;;;;0.17;0.17;;;1.90;99.90;;;;;;5104416;28;20045;-76
2023/03/02 04:15:02;;;;;;;0.10;0.10;;;1.90;99.90;;;;;;5124492;27;20019;-76
2023/03/02 04:17:28;;;;;;;1.38;1.38;;;2.00;99.90;;;;;;5107945;28;20363;-76
2023/03/02 04:19:59;;;;;;;3.10;3.00;;;2.00;99.90;;;;;;5125107;28;20042;-75
2023/03/02 04:22:28;;;;;;;0.30;0.30;;;2.00;99.90;;;;;;5116440;28;20315;-75
2023/03/02 04:24:53;;;;;;;0.10;0.10;;;2.00;99.90;;;;;;5123605;28;20024;-75
2023/03/02 04:27:36;;;;;;;0.10;0.10;;;2.00;99.90;;;;;;5124251;28;20057;-75
2023/03/02 04:30:05;;;;;;;5.47;5.28;;;2.00;99.90;;;;;;5122447;28;20051;-76
2023/03/02 04:32:39;;;;;;;15.13;14.43;;;2.00;99.90;;;;;;5124865;28;20082;-76
2023/03/02 04:35:05;;;;;;;0.10;0.10;;;2.00;99.90;;;;;;5125026;28;20059;-76
2023/03/02 04:37:30;;;;;;;0.10;0.10;;;2.00;99.90;;;;;;5110982;28;20224;-76
2023/03/02 04:40:00;;;;;;;11.55;10.75;;;2.00;99.90;;;;;;5125108;28;20300;-76
2023/03/02 04:42:34;;;;;;;0.10;0.10;;;2.00;99.90;;;;;;5105062;28;20038;-76
2023/03/02 04:45:01;;;;;;;0.10;0.10;;;2.00;99.90;;;;;;5123827;28;20593;-75
2023/03/02 04:47:27;;;;;;;0.32;0.32;;;2.00;99.90;;;;;;5120647;27;20057;-76
2023/03/02 04:49:53;;;;;;;0.65;0.65;;;;;;;;;;5117426;28;20281;-75
2023/03/02 04:52:21;;;;;;;5.45;5.25;;;2.00;99.90;;;;;;5119721;28;20079;-75
2023/03/02 04:54:48;;;;;;;9.57;9.18;;;2.00;99.90;;;;;;5104312;28;20091;-76
2023/03/02 04:57:17;;;;;;;0.10;0.10;;;2.00;99.90;;;;;;5121752;28;20036;-76
2023/03/02 04:59:43;;;;;;;36.05;34.20;;;2.00;99.90;;;;;;5105894;28;20035;-75
2023/03/02 05:02:10;;;;;;;0.20;0.20;;;2.00;99.90;;;;;;5123105;28;20020;-76
2023/03/02 05:04:36;;;;;;;1.98;1.88;;;2.00;99.90;;;;;;5121258;28;20039;-75
2023/03/02 05:07:05;;;;;;;0.10;0.10;;;1.90;99.90;;;;;;5122468;28;20020;-75
2023/03/02 05:09:31;;;;;;;2.65;2.40;;;2.00;99.90;;;;;;5121621;28;20442;-75
2023/03/02 05:12:02;;;;;;;10.07;9.18;;;2.00;99.90;;;;;;5120972;28;20015;-75
2023/03/02 05:14:30;;;;;;;0.10;0.10;;;2.00;99.90;;;;;;5120562;28;20025;-75
2023/03/02 05:16:56;;;;;;;0.20;0.20;;;1.90;99.90;;;;;;5120378;28;20105;-76
2023/03/02 05:19:22;;;;;;;22.13;17.83;;;2.00;99.90;;;;;;5122116;28;20020;-74
2023/03/02 05:21:48;;;;;;;0.10;0.10;;;2.00;99.90;;;;;;5119276;28;20079;-76
2023/03/02 05:24:22;;;;;;;5.78;5.55;;;1.90;99.90;;;;;;5121766;28;20034;-76
2023/03/02 05:26:54;;;;;;;;;;;1.90;99.90;;;;;;5120425;28;20030;-75
2023/03/02 05:29:23;;;;;;;0.10;0.10;;;2.00;99.90;;;;;;5122182;28;19904;-75
2023/03/02 05:31:50;;;;;;;0.22;0.22;;;2.00;99.90;;;;;;5121612;28;20035;-76
2023/03/02 05:34:18;;;;;;;3.28;3.10;;;2.00;99.90;;;;;;5115447;28;20039;-76
2023/03/02 05:36:45;;;;;;;0.10;0.10;;;2.00;99.90;;;;;;5113839;28;20032;-76
2023/03/02 05:39:11;;;;;;;0.17;0.17;;;2.00;99.90;;;;;;5115178;28;20120;-76
2023/03/02 05:41:39;;;;;;;0.47;0.47;;;2.00;99.90;;;;;;5114124;28;20011;-76
2023/03/02 05:44:10;;;;;;;0.32;0.32;;;2.00;99.90;;;;;;5117071;28;20024;-76
2023/03/02 05:46:37;;;;;;;0.00;0.00;;;2.10;99.90;;;;;;5112759;28;20020;-76
2023/03/02 05:49:03;;;;;;;2.45;2.33;;;2.10;99.90;;;;;;5111907;28;20020;-76
2023/03/02 05:51:29;;;;;;;0.10;0.10;;;2.10;99.90;;;;;;5117253;28;20038;-76
2023/03/02 05:53:55;;;;;;;0.22;0.22;;;2.20;99.90;;;;;;5123124;28;20049;-76
2023/03/02 05:56:21;;;;;;;0.20;0.20;;;2.20;99.90;;;;;;5124394;28;20036;-75
2023/03/02 05:58:47;;;;;;;0.10;0.10;;;2.20;99.90;;;;;;5123171;28;20004;-76
2023/03/02 06:01:20;;;;;;;2.55;2.45;;;2.30;99.90;;;;;;5123726;28;20027;-75
2023/03/02 06:03:46;;;;;;;8.00;7.70;;;2.30;99.90;;;;;;5125269;28;20043;-76
2023/03/02 06:06:12;;;;;;;0.73;0.73;;;2.30;99.90;;;;;;5092819;28;20019;-76
2023/03/02 06:08:39;;;;;;;0.68;0.68;;;2.30;99.90;;;;;;5130147;28;20024;-75
2023/03/02 06:11:05;;;;;;;2.83;2.63;;;2.30;99.90;;;;;;5131847;27;20306;-76
2023/03/02 06:13:31;;;;;;;0.10;0.10;;;2.40;99.90;;;;;;5121637;28;20036;-76
2023/03/02 06:16:00;;;;;;;0.43;0.43;;;2.40;99.90;;;;;;5119548;28;20015;-76
2023/03/02 06:18:26;;;;;;;0.10;0.10;;;2.40;99.90;;;;;;5101172;28;20541;-76
2023/03/02 06:20:51;;;;;;;0.10;0.10;;;2.40;99.90;;;;;;5094015;28;20015;-76
2023/03/02 06:23:17;;;;;;;0.10;0.10;;;2.40;99.90;;;;;;5106491;28;20028;-76
2023/03/02 06:25:47;;;;;;;0.75;0.75;;;2.50;99.90;;;;;;5112574;28;20027;-76
2023/03/02 06:28:33;;;;;;;28.88;26.58;;;2.40;99.90;;;;;;5122373;28;20361;-77
2023/03/02 06:30:59;;;;;;;0.10;0.10;;;;;;;;;;5126680;28;20603;-76
2023/03/02 06:33:25;;;;;;;2.28;1.80;;;2.50;99.90;;;;;;5126896;28;20043;-75
2023/03/02 06:35:51;;;;;;;2.38;2.28;;;2.50;99.90;;;;;;5127482;28;20034;-75
2023/03/02 06:38:17;;;;;;;0.00;0.00;;;2.50;99.90;;;;;;5129366;28;20047;-75
2023/03/02 06:40:44;;;;;;;5.03;4.82;;;2.60;99.90;;;;;;5122255;28;20051;-76
2023/03/02 06:43:11;;;;;;;0.10;0.10;;;2.70;99.90;;;;;;5117360;28;20008;-76
2023/03/02 06:45:40;;;;;;;0.10;0.10;;;2.70;99.90;;;;;;5118259;28;20047;-76
2023/03/02 06:48:06;;;;;;;0.22;0.22;;;2.70;99.90;;;;;;5114951;28;20023;-76
2023/03/02 06:50:33;;;;;;;0.32;0.32;;;2.80;99.90;;;;;;5115208;28;20030;-75
2023/03/02 06:52:59;;;;;;;18.63;17.83;;;2.90;99.90;;;;;;5092479;28;20027;-76
2023/03/02 06:55:25;;;;;;;11.75;11.27;;;3.00;99.90;;;;;;5104678;28;20095;-76
2023/03/02 06:57:51;;;;;;;2.70;2.60;;;3.00;99.90;;;;;;5100927;28;20038;-76
2023/03/02 07:00:25;;;;;;;9.68;8.82;;;3.10;99.90;;;;;;5102984;28;20031;-76
2023/03/02 07:02:51;;;;;;;2.67;2.58;;;3.20;99.90;;;;;;5082929;28;20031;-76
2023/03/02 07:05:18;;;;;;;23.33;20.92;;;3.20;99.90;;;;;;5100913;28;20308;-76
2023/03/02 07:07:44;;;;;;;9.25;8.90;;;;;;;;;;5113067;28;20050;-76
2023/03/02 07:10:13;;;;;;;12.50;9.85;;;3.40;99.90;;;;;;5120868;28;20047;-76
2023/03/02 07:12:40;;;;;;;10.75;10.23;;;3.40;99.90;;;;;;5103228;28;20043;-76
2023/03/02 07:15:13;;;;;;;0.35;0.35;;;3.40;99.90;;;;;;5118837;28;20212;-76
2023/03/02 07:17:41;;;;;;;31.48;29.92;;;3.30;99.90;;;;;;5106825;28;20051;-76
2023/03/02 07:20:09;;;;;;;12.38;11.38;;;3.30;99.90;;;;;;5120170;28;20038;-76
2023/03/02 07:22:36;;;;;;;8.90;8.05;;;3.30;99.90;;;;;;5118435;28;20081;-76
2023/03/02 07:25:08;;;;;;;2.67;2.58;;;3.20;99.90;;;;;;5123699;28;20020;-77
2023/03/02 07:27:41;;;;;;;0.13;0.13;;;3.30;99.90;;;;;;5124703;28;20031;-75
2023/03/02 07:30:14;;;;;;;0.10;0.10;;;3.30;99.90;;;;;;5121899;28;20052;-76
2023/03/02 07:32:41;;;;;;;73.45;66.63;;;3.30;99.90;;;;;;5118514;28;20088;-76
2023/03/02 07:35:08;;;;;;;0.10;0.10;;;3.30;99.90;;;;;;5120647;28;20039;-76
2023/03/02 07:37:34;;;;;;;0.10;0.10;;;3.40;99.90;;;;;;5123029;28;20031;-76
2023/03/02 07:40:00;;;;;;;7.28;6.97;;;3.40;99.90;;;;;;5126719;28;20012;-76
2023/03/02 07:42:26;;;;;;;13.95;12.63;;;3.50;99.90;;;;;;5129271;28;20020;-76
2023/03/02 07:44:53;;;;;;;6.82;6.50;;;3.60;99.90;;;;;;5129653;28;20031;-76
2023/03/02 07:47:19;;;;;;;10.60;9.82;;;3.70;99.90;;;;;;5132842;28;20023;-75
2023/03/02 07:49:44;;;;;;;3.00;2.90;;;3.80;99.90;;;;;;5130750;28;20087;-76
2023/03/02 07:52:10;;;;;;;0.10;0.10;;;3.90;99.90;;;;;;5132366;28;20031;-76
2023/03/02 07:54:37;;;;;;;0.10;0.10;;;;;;;;;;5090747;28;20335;-76
2023/03/02 07:57:03;;;;;;;5.70;5.50;;;4.00;99.90;;;;;;5082592;28;20398;-76
2023/03/02 07:59:29;;;;;;;9.02;8.63;;;4.10;99.90;;;;;;5100787;28;20027;-77
2023/03/02 08:01:56;;;;;;;10.10;9.65;;;5.40;99.90;;;;;;5113894;28;20032;-76
2023/03/02 08:04:22;;;;;;;0.10;0.10;;;4.10;99.90;;;;;;5082318;28;20028;-76
2023/03/02 08:06:48;;;;;;;2.35;2.25;;;4.20;99.90;;;;;;5101621;28;20020;-76
2023/03/02 08:09:14;;;;;;;0.20;0.20;;;4.10;99.90;;;;;;5100497;28;20024;-76
2023/03/02 08:11:40;;;;;;;3.00;2.90;;;4.10;99.90;;;;;;5100526;28;20024;-76
2023/03/02 08:14:23;;;;;;;0.05;0.05;;;4.10;99.90;;;;;;5109282;28;20016;-76
2023/03/02 08:16:51;;;;;;;12.90;12.35;;;4.10;99.90;;;;;;5102313;28;20047;-77
2023/03/02 08:19:19;;;;;;;42.78;40.90;;;3.90;99.90;;;;;;5114359;28;20058;-77
2023/03/02 08:21:45;;;;;;;2.17;2.08;;;;;;;;;;5099976;28;20231;-77
2023/03/02 08:24:12;;;;;;;20.75;19.20;;;4.00;99.90;;;;;;5111789;28;20119;-76
2023/03/02 08:26:40;;;;;;;1.17;1.17;;;4.00;99.90;;;;;;5120777;28;20046;-76
2023/03/02 08:29:12;;;;;;;24.65;23.10;;;4.00;99.90;;;;;;5123404;28;20035;-76
2023/03/02 08:31:38;;;;;;;0.10;0.10;;;4.10;99.90;;;;;;5119730;28;20067;-76
2023/03/02 08:34:03;;;;;;;0.15;0.15;;;4.20;99.90;;;;;;5125011;28;20529;-76
2023/03/02 08:36:33;;;;;;;0.20;0.20;;;4.40;99.90;;;;;;5110463;28;20028;-76
2023/03/02 08:38:59;;;;;;;0.10;0.10;;;4.60;99.90;;;;;;5114485;28;20059;-76
2023/03/02 08:41:33;;;;;;;5.78;5.47;;;4.70;99.90;;;;;;5116369;28;20024;-77
2023/03/02 08:44:07;;;;;;;0.15;0.15;;;4.90;99.90;;;;;;5118640;28;20109;-77
2023/03/02 08:46:49;;;;;;;0.52;0.52;;;5.00;99.90;;;;;;5120573;28;20422;-76
2023/03/02 08:49:16;;;;;;;8.73;8.48;;;5.10;99.90;;;;;;5122866;28;20027;-77
2023/03/02 08:51:44;;;;;;;1.00;1.00;;;5.20;99.90;;;;;;5121708;28;20024;-76
2023/03/02 08:54:10;;;;;;;0.10;0.10;;;5.40;99.90;;;;;;5117688;28;20015;-76
2023/03/02 08:56:43;;;;;;;8.82;8.02;;;5.60;99.90;;;;;;5100678;28;20490;-76
2023/03/02 08:59:12;;;;;;;9.95;9.45;;;5.70;99.90;;;;;;5123356;27;20047;-76
2023/03/02 09:01:39;;;;;;;0.20;0.20;;;5.80;99.90;;;;;;5103530;28;20012;-76
2023/03/02 09:04:09;;;;;;;0.40;0.40;;;5.80;99.90;;;;;;5105255;28;20277;-75
2023/03/02 09:06:42;;;;;;;1.73;1.67;;;5.90;99.90;;;;;;5125797;28;20012;-76
2023/03/02 09:09:15;;;;;;;0.25;0.25;;;6.00;99.90;;;;;;5126423;28;20046;-77
2023/03/02 09:11:45;;;;;;;0.10;0.10;;;6.00;99.90;;;;;;5123443;28;20321;-76
2023/03/02 09:14:13;;;;;;;0.10;0.10;;;6.00;99.90;;;;;;5118582;28;20070;-76
2023/03/02 09:16:39;;;;;;;0.10;0.10;;;5.90;99.90;;;;;;5115938;28;20457;-76
2023/03/02 09:19:05;;;;;;;30.08;10.52;;;5.80;99.90;;;;;;5118874;28;20070;-76
2023/03/02 09:21:44;;;;;;;0.10;0.10;;;5.60;99.90;;;;;;5116320;28;20019;-77
2023/03/02 09:24:14;;;;;;;0.20;0.20;;;5.50;99.90;;;;;;5116300;28;20119;-76
2023/03/02 09:26:40;;;;;;;0.08;0.08;;;5.30;99.90;;;;;;5121767;28;20091;-76
2023/03/02 09:29:08;;;;;;;0.03;0.03;;;5.10;99.90;;;;;;5126368;28;20084;-76
2023/03/02 09:31:56;;;;;;;12.32;11.80;;;5.10;99.90;;;;;;5127990;28;20055;-76
2023/03/02 09:34:22;;;;;;;0.20;0.20;;;5.00;99.90;;;;;;5124474;28;20015;-77
2023/03/02 09:36:48;;;;;;;0.65;0.65;;;5.00;99.90;;;;;;5122356;28;20039;-76
2023/03/02 09:39:14;;;;;;;0.13;0.13;;;;;;;;;;5111462;28;20035;-77
2023/03/02 09:42:44;;;;;;;0.20;0.20;;;5.00;99.90;;;;;;5125821;28;20031;-76
2023/03/02 09:45:50;;;;;;;0.10;0.10;;;5.00;99.90;;;;;;5017297;28;20042;-76
2023/03/02 09:48:46;;;;;;;7.72;7.18;;;4.90;99.90;;;;;;5010772;28;20026;-76
2023/03/02 09:51:30;;;;;;;2.88;2.75;;;4.60;99.90;;;;;;4938156;29;20036;-76
2023/03/02 09:54:17;;;;;;;91.60;47.97;;;5.10;99.90;;;;;;4932027;29;20066;-76
2023/03/02 09:56:51;;;;;;;0.10;0.10;;;5.20;99.90;;;;;;4935452;29;20040;-76
2023/03/02 09:59:20;;;;;;;0.00;0.00;;;5.30;99.90;;;;;;4933686;29;20050;-77
2023/03/02 10:02:02;;;;;;;5.47;5.25;;;5.40;99.90;;;;;;4927975;29;20035;-77
2023/03/02 10:04:39;;;;;;;1.05;1.05;;;5.50;99.90;;;;;;4924872;29;20542;-77
2023/03/02 10:07:14;;;;;;;19.75;18.33;;;5.60;99.90;;;;;;4924218;29;20089;-76
2023/03/02 10:09:47;;;;;;;2.47;2.38;;;5.80;99.90;;;;;;4935203;29;20491;-76
2023/03/02 10:12:42;;;;;;;11.32;10.60;;;6.10;99.90;;;;;;4942097;29;20024;-76
2023/03/02 10:16:04;;;;;;;0.40;0.40;;;6.40;99.90;;;;;;4914017;29;20223;-76
2023/03/02 10:18:48;;;;;;;0.50;0.50;;;6.80;99.90;;;;;;4901922;29;20045;-76
2023/03/02 10:21:52;;;;;;;6.32;6.05;;;7.20;99.90;;;;;;4952848;28;20035;-76
2023/03/02 10:24:59;;;;;;;25.42;23.63;;;7.50;99.90;;;;;;4979910;28;20110;-76
2023/03/02 10:27:30;;;;;;;5.30;5.10;;;6.50;99.90;;;;;;4986309;28;20505;-76
2023/03/02 10:30:36;;;;;;;1.48;1.48;;;7.60;99.90;;;;;;5026071;28;20448;-77
2023/03/02 10:33:10;;;;;;;1.20;1.20;;;7.70;99.90;;;;;;5026540;28;20124;-76
2023/03/02 10:35:40;;;;;;;0.50;0.50;;;7.80;99.90;;;;;;5028342;28;20037;-78
2023/03/02 10:38:23;;;;;;;29.58;27.15;;;7.80;99.90;;;;;;5006056;28;20583;-77
2023/03/02 10:41:10;;;;;;;14.30;13.73;;;7.50;99.90;;;;;;5027426;28;20656;-77
2023/03/02 10:43:54;;;;;;;69.88;63.38;;;7.50;99.90;;;;;;5029676;28;20097;-76
2023/03/02 10:46:24;;;;;;;1.17;1.17;;;7.50;99.90;;;;;;5015965;28;20536;-76
2023/03/02 10:49:00;;;;;;;5.13;4.90;;;7.40;99.90;;;;;;5097203;28;20047;-76
2023/03/02 10:51:37;;;;;;;4.03;3.90;;;7.30;99.90;;;;;;5102062;28;20038;-77
2023/03/02 10:54:13;;;;;;;49.17;24.25;;;7.20;99.90;;;;;;5112247;28;20020;-76
2023/03/02 10:56:46;;;;;;;5.35;5.05;;;7.10;99.90;;;;;;5120100;28;20024;-76
2023/03/02 10:59:47;;;;;;;0.52;0.52;;;7.00;99.90;;;;;;5121194;28;20064;-76
2023/03/02 11:02:26;;;;;;;6.55;6.22;;;7.00;99.90;;;;;;5024496;28;20041;-76
2023/03/02 11:05:28;;;;;;;2.83;2.72;;;6.80;99.90;;;;;;5014213;28;20216;-76
2023/03/02 11:08:26;;;;;;;0.40;0.40;;;6.80;99.90;;;;;;4984336;28;20334;-76
2023/03/02 11:11:00;;;;;;;14.00;13.27;;;5.40;99.90;;;;;;5015872;28;20037;-76
2023/03/02 11:13:32;;;;;;;0.65;0.65;;;6.70;99.90;;;;;;5014957;28;20034;-76
2023/03/02 11:16:05;;;;;;;0.20;0.20;;;3.90;99.90;;;;;;5015065;28;20078;-76
2023/03/02 11:19:02;;;;;;;19.52;18.55;;;6.70;99.90;;;;;;5018754;28;20063;-77
2023/03/02 11:22:19;;;;;;;0.15;0.15;;;6.60;99.90;;;;;;5001031;28;20068;-76
2023/03/02 11:24:53;;;;;;;0.28;0.28;;;6.70;99.90;;;;;;4939301;29;20055;-76
2023/03/02 11:27:33;;;;;;;0.20;0.20;;;6.80;99.90;;;;;;4936390;29;20349;-76
2023/03/02 11:30:17;;;;;;;0.70;0.70;;;6.90;99.90;;;;;;4937447;29;20044;-76
2023/03/02 11:33:06;;;;;;;1.02;1.02;;;6.90;99.90;;;;;;4922389;29;20563;-77
2023/03/02 11:35:46;;;;;;;0.20;0.20;;;7.00;99.90;;;;;;4921695;29;20132;-77
2023/03/02 11:38:25;;;;;;;0.20;0.20;;;7.00;99.90;;;;;;4986827;28;20042;-77
2023/03/02 11:41:14;;;;;;;14.13;13.13;;;7.00;99.90;;;;;;5019058;28;20301;-76
2023/03/02 11:43:40;;;;;;;1.35;1.30;;;7.10;99.90;;;;;;5011819;28;20044;-77
2023/03/02 11:46:13;;;;;;;0.80;0.80;;;7.10;99.90;;;;;;5020440;28;20029;-76
2023/03/02 11:48:48;;;;;;;0.40;0.40;;;7.20;99.90;;;;;;5037954;28;20037;-77
2023/03/02 11:51:27;;;;;;;6.90;6.60;;;7.20;99.90;;;;;;5018791;28;20034;-77
2023/03/02 11:54:08;;;;;;;0.10;0.10;;;7.20;99.90;;;;;;5017459;28;20307;-77
2023/03/02 11:56:37;;;;;;;0.10;0.10;;;7.60;99.90;;;;;;5116669;28;20040;-76
2023/03/02 11:59:18;;;;;;;4.47;4.28;;;6.80;99.90;;;;;;5094884;28;20035;-77
2023/03/02 12:02:10;;;;;;;0.10;0.10;;;6.30;99.90;;;;;;5118343;28;20031;-76
2023/03/02 12:04:40;;;;;;;3.45;3.30;;;6.30;99.90;;;;;;5129517;28;20016;-77
2023/03/02 12:07:33;;;;;;;0.10;0.10;;;6.10;99.90;;;;;;5126193;28;20025;-76
2023/03/02 12:10:22;;;;;;;0.65;0.65;;;6.10;99.90;;;;;;5130011;28;20020;-76
2023/03/02 12:13:19;;;;;;;0.00;0.00;;;6.00;99.90;;;;;;5094679;28;20080;-76
2023/03/02 12:15:49;;;;;;;2.58;2.47;;;5.60;99.90;;;;;;5094726;28;20063;-77
2023/03/02 12:18:40;;;;;;;0.10;0.10;;;5.60;99.90;;;;;;5125733;28;20288;-76
2023/03/02 12:21:19;;;;;;;0.20;0.20;;;5.60;99.90;;;;;;5111227;28;20499;-76
2023/03/02 12:23:54;;;;;;;0.30;0.30;;;5.60;99.90;;;;;;5125106;28;20049;-76
2023/03/02 12:26:31;;;;;;;3.67;3.58;;;5.70;99.90;;;;;;5124705;28;20015;-76
2023/03/02 12:29:12;;;;;;;10.40;6.32;;;5.70;99.90;;;;;;5123446;28;20028;-77
2023/03/02 12:32:00;;;;;;;0.10;0.10;;;5.60;99.90;;;;;;5119610;28;20028;-77
2023/03/02 12:34:52;;;;;;;0.00;0.00;;;5.70;99.90;;;;;;5123412;28;20073;-76
2023/03/02 12:37:26;;;;;;;0.10;0.10;;;5.80;99.90;;;;;;5123224;28;20032;-76
2023/03/02 12:40:11;;;;;;;1.42;1.38;;;5.80;99.90;;;;;;5104780;28;20042;-76
2023/03/02 12:43:15;;;;;;;0.93;0.93;;;5.90;99.90;;;;;;5126641;28;20191;-76
2023/03/02 12:46:27;;;;;;;0.10;0.10;;;5.90;99.90;;;;;;5128155;28;20323;-76
2023/03/02 12:49:41;;;;;;;0.20;0.20;;;5.80;99.90;;;;;;5019370;28;20048;-76
2023/03/02 12:53:02;;;;;;;0.40;0.40;;;5.80;99.90;;;;;;5022201;28;20030;-75
2023/03/02 12:55:28;;;;;;;0.50;0.47;;;5.70;99.90;;;;;;5022765;28;20113;-77
2023/03/02 12:58:03;;;;;;;1.20;1.20;;;5.60;99.90;;;;;;5023551;28;20076;-76
2023/03/02 13:00:33;;;;;;;0.00;0.00;;;5.60;99.90;;;;;;5004675;28;20084;-77
2023/03/02 13:03:08;;;;;;;0.20;0.20;;;5.60;99.90;;;;;;5022038;28;20380;-77
2023/03/02 13:05:42;;;;;;;14.30;13.10;;;5.60;99.90;;;;;;5015101;28;20030;-76
2023/03/02 13:08:17;;;;;;;4.38;4.28;;;5.60;99.90;;;;;;5016900;28;20022;-76
2023/03/02 13:10:52;;;;;;;0.10;0.10;;;5.60;99.90;;;;;;5018001;28;20034;-77
2023/03/02 13:13:55;;;;;;;0.03;0.03;;;5.70;99.90;;;;;;4998854;28;20030;-77
2023/03/02 13:16:30;;;;;;;1.20;1.10;;;5.60;99.90;;;;;;5015272;28;20029;-76
2023/03/02 13:18:59;;;;;;;1.27;1.27;;;5.50;99.90;;;;;;5042982;28;20047;-77
2023/03/02 13:21:37;;;;;;;0.20;0.20;;;5.60;99.90;;;;;;5124687;27;20008;-76
2023/03/02 13:24:23;;;;;;;0.20;0.20;;;5.60;99.90;;;;;;5127090;28;20024;-77
2023/03/02 13:26:58;;;;;;;0.20;0.20;;;5.60;99.90;;;;;;5122791;28;20123;-76